Time;durP1;ratioP1;P1;durP2;ratioP2;P2;SDS_P1;SDS_P2;PMS_P1;PMS_P2;Temp;Humidity;BMP_temperature;BMP_pressure;BME280_temperature;BME280_humidity;BME280_pressure;Samples;Min_cycle;Max_cycle;Signal;HPM_P1;HPM_P2
2023/01/27 00:01:35;;;;;;;21.23;1.50;;;;;;;-142.75;100.00;78685.00;5036225;28;20066;-68
2023/01/27 00:04:00;;;;;;;10.70;1.52;;;;;;;-142.75;100.00;78683.03;5053169;28;20029;-69
2023/01/27 00:06:25;;;;;;;13.18;2.60;;;;;;;-142.75;100.00;78686.97;5052562;28;20020;-68
2023/01/27 00:08:50;;;;;;;11.20;2.10;;;;;;;-142.75;100.00;78694.84;5038959;28;20020;-68
2023/01/27 00:13:59;;;;;;;17.17;1.80;;;;;;;-142.75;100.00;78694.84;5053059;28;20107;-68
2023/01/27 00:16:26;;;;;;;7.00;1.57;;;;;;;-142.75;100.00;78704.69;5052017;28;20091;-68
2023/01/27 00:18:51;;;;;;;7.18;1.75;;;;;;;-142.75;100.00;78700.75;5052582;28;20057;-68
2023/01/27 00:26:44;;;;;;;7.47;1.53;;;;;;;-142.75;100.00;78686.97;5041236;28;20603;-68
2023/01/27 00:29:10;;;;;;;10.05;1.00;;;;;;;-142.75;100.00;78677.13;5042910;28;20113;-68
2023/01/27 00:34:19;;;;;;;12.63;1.37;;;;;;;-142.75;100.00;78692.88;5038632;28;20116;-68
2023/01/27 00:36:44;;;;;;;11.80;1.80;;;;;;;-142.75;100.00;78702.72;5052894;28;20099;-69
2023/01/27 00:39:11;;;;;;;6.60;1.50;;;;;;;-142.75;100.00;78698.78;5047810;28;20021;-68
2023/01/27 00:41:36;;;;;;;9.17;1.10;;;;;;;-142.75;100.00;78716.50;5032981;28;20032;-68
2023/01/27 00:44:04;;;;;;;11.90;1.83;;;;;;;-142.75;100.00;78722.41;5043412;28;20224;-69
2023/01/27 00:46:29;;;;;;;8.67;1.37;;;;;;;-142.75;100.00;78712.56;5035740;28;20028;-69
2023/01/27 00:48:55;;;;;;;7.78;1.50;;;;;;;-142.75;100.00;78732.25;5039989;28;20029;-68
2023/01/27 00:51:20;;;;;;;7.65;1.23;;;;;;;-142.75;100.00;78732.25;5042889;28;20025;-68
2023/01/27 00:53:46;;;;;;;10.50;1.50;;;;;;;-142.75;100.00;78730.28;5041560;28;20487;-68
2023/01/27 00:56:12;;;;;;;14.75;1.20;;;;;;;-142.75;100.00;78736.19;5046011;28;20025;-68
2023/01/27 00:58:37;;;;;;;4.95;1.10;;;;;;;-142.75;100.00;78740.13;5032885;28;20029;-68
2023/01/27 01:01:09;;;;;;;11.68;1.38;;;;;;;-142.75;100.00;78738.16;5032495;28;20123;-68
2023/01/27 01:03:34;;;;;;;7.57;1.50;;;;;;;-142.75;100.00;78748.03;5032295;28;20040;-68
2023/01/27 01:06:04;;;;;;;5.18;1.05;;;;;;;-142.75;100.00;78767.72;5034390;28;20025;-68
2023/01/27 01:08:31;;;;;;;9.93;1.30;;;;;;;-142.75;100.00;78750.00;5043471;28;20025;-68
2023/01/27 01:10:57;;;;;;;8.67;1.50;;;;;;;-142.75;100.00;78740.13;5033985;28;20021;-68
2023/01/27 01:13:22;;;;;;;5.68;1.38;;;;;;;-142.75;100.00;78732.25;5050047;28;20408;-67
2023/01/27 01:15:47;;;;;;;5.65;1.50;;;;;;;-142.75;100.00;78750.00;5038046;28;20028;-68
2023/01/27 01:18:13;;;;;;;15.57;1.70;;;;;;;-142.75;100.00;78753.94;5046597;28;20033;-68
2023/01/27 01:20:40;;;;;;;;;;;;;;;-142.75;100.00;78751.97;5046187;28;20021;-69
2023/01/27 01:23:06;;;;;;;14.90;2.42;;;;;;;-142.75;100.00;78761.81;5051772;28;19935;-68
2023/01/27 01:25:32;;;;;;;4.20;1.25;;;;;;;-142.75;100.00;78785.44;5051133;28;20496;-69
2023/01/27 01:27:58;;;;;;;10.13;1.30;;;;;;;-142.75;100.00;78769.69;5050852;28;20059;-69
2023/01/27 01:30:25;;;;;;;6.53;1.58;;;;;;;-142.75;100.00;78781.50;5033781;28;20033;-69
2023/01/27 01:32:51;;;;;;;9.60;1.47;;;;;;;-142.75;100.00;78807.09;5032080;28;20025;-69
2023/01/27 01:35:17;;;;;;;9.00;2.33;;;;;;;-142.75;100.00;78801.19;5031728;28;20026;-69
2023/01/27 01:37:42;;;;;;;7.75;1.48;;;;;;;-142.75;100.00;78811.03;5032008;28;20522;-69
2023/01/27 01:40:11;;;;;;;6.45;1.85;;;;;;;-142.75;100.00;78807.09;5048555;28;20057;-68
2023/01/27 01:42:57;;;;;;;10.67;2.00;;;;;;;-142.75;100.00;78797.25;5038864;28;20422;-68
2023/01/27 01:45:31;;;;;;;8.77;1.87;;;;;;;-142.75;100.00;78811.03;5050127;28;20048;-69
2023/01/27 01:48:05;;;;;;;11.30;1.53;;;;;;;-142.75;100.00;78814.97;5050149;28;20136;-69
2023/01/27 01:50:32;;;;;;;5.77;1.50;;;;;;;-142.75;100.00;78818.91;5031961;28;20021;-69
2023/01/27 01:53:00;;;;;;;2.83;1.23;;;;;;;-142.75;100.00;78818.91;5039875;28;20104;-69
2023/01/27 01:55:25;;;;;;;4.03;1.67;;;;;;;-142.75;100.00;78848.47;5038112;28;20033;-68
2023/01/27 01:57:51;;;;;;;8.90;1.42;;;;;;;-142.75;100.00;78832.72;5032293;28;20032;-69
2023/01/27 02:00:16;;;;;;;11.38;3.00;;;;;;;-142.75;100.00;78846.50;5032556;28;20061;-69
2023/01/27 02:02:43;;;;;;;8.10;2.15;;;;;;;-142.75;100.00;78834.69;5032789;28;20262;-68
2023/01/27 02:05:15;;;;;;;4.37;1.70;;;;;;;-142.75;100.00;78854.38;5037074;28;20032;-69
2023/01/27 02:07:50;;;;;;;8.63;2.00;;;;;;;-142.75;100.00;78876.03;5032980;28;20047;-69
2023/01/27 02:10:15;;;;;;;17.13;2.43;;;;;;;-142.75;100.00;78870.13;5047166;28;20437;-69
2023/01/27 02:12:41;;;;;;;5.50;2.28;;;;;;;-142.75;100.00;78830.75;5046255;28;20124;-68
2023/01/27 02:15:08;;;;;;;6.97;2.25;;;;;;;-142.75;100.00;78860.28;5031514;28;20021;-69
2023/01/27 02:17:34;;;;;;;5.83;2.27;;;;;;;-142.75;100.00;78866.19;5031432;28;20122;-69
2023/01/27 02:20:26;;;;;;;8.82;2.63;;;;;;;-142.75;100.00;78832.72;5030313;28;20021;-69
2023/01/27 02:22:51;;;;;;;5.17;2.10;;;;;;;-142.75;100.00;78870.13;5031239;28;20524;-69
2023/01/27 02:25:33;;;;;;;9.85;2.40;;;;;;;-142.75;100.00;78842.56;5043622;28;20179;-69
2023/01/27 02:27:59;;;;;;;11.17;3.47;;;;;;;-142.75;100.00;78850.44;5046367;28;20041;-69
2023/01/27 02:30:24;;;;;;;10.43;2.70;;;;;;;-142.75;100.00;78846.50;5030999;28;20516;-69
2023/01/27 02:32:49;;;;;;;8.85;2.83;;;;;;;-142.75;100.00;78883.91;5032297;28;20033;-69
2023/01/27 02:35:29;;;;;;;5.40;2.78;;;;;;;-142.75;100.00;78878.00;5029983;28;20507;-69
2023/01/27 02:37:56;;;;;;;8.13;2.10;;;;;;;-142.75;100.00;78881.94;5031749;28;20105;-68
2023/01/27 02:40:23;;;;;;;14.40;3.10;;;;;;;-142.75;100.00;78887.84;5032214;28;20029;-68
2023/01/27 02:42:49;;;;;;;10.50;3.10;;;;;;;-142.75;100.00;78907.56;5051883;28;20056;-69
2023/01/27 02:45:14;;;;;;;5.65;2.30;;;;;;;-142.75;100.00;78911.50;5041686;28;20108;-69
2023/01/27 02:47:39;;;;;;;5.78;2.17;;;;;;;-142.75;100.00;78893.78;5051018;28;20472;-69
2023/01/27 02:50:05;;;;;;;6.97;2.35;;;;;;;-142.75;100.00;78917.41;5056110;28;20021;-70
2023/01/27 02:52:31;;;;;;;8.90;2.95;;;;;;;-142.75;100.00;78903.63;5056685;28;20040;-69
2023/01/27 02:54:56;;;;;;;7.95;3.10;;;;;;;-142.75;100.00;78887.84;5050318;28;20021;-69
2023/01/27 02:57:21;;;;;;;7.32;3.00;;;;;;;-142.75;100.00;78889.81;5049400;28;20299;-69
2023/01/27 02:59:46;;;;;;;7.75;3.00;;;;;;;-142.75;100.00;78893.78;5043341;28;20472;-69
2023/01/27 03:02:13;;;;;;;12.93;3.50;;;;;;;-142.75;100.00;78915.44;5044704;28;20028;-70
2023/01/27 03:04:39;;;;;;;8.27;3.30;;;;;;;-142.75;100.00;78905.59;5045718;28;20373;-69
2023/01/27 03:07:04;;;;;;;7.85;3.08;;;;;;;-142.75;100.00;78893.78;5044889;28;20021;-70
2023/01/27 03:09:30;;;;;;;7.90;3.42;;;;;;;-142.75;100.00;78895.75;5058292;28;20021;-69
2023/01/27 03:20:07;;;;;;;9.27;3.57;;;;;;;-142.75;100.00;78895.75;5050266;28;20032;-70
2023/01/27 03:22:32;;;;;;;10.25;3.75;;;;;;;-142.75;100.00;78907.56;5057928;28;20033;-69
2023/01/27 03:24:58;;;;;;;10.93;3.67;;;;;;;-142.75;100.00;78927.25;5056301;28;20024;-70
2023/01/27 03:27:23;;;;;;;12.13;4.47;;;;;;;-142.75;100.00;78909.53;5047476;28;20025;-70
2023/01/27 03:29:54;;;;;;;9.55;3.63;;;;;;;-142.75;100.00;78921.34;5041031;28;20337;-69
2023/01/27 03:32:21;;;;;;;9.57;4.80;;;;;;;-142.75;100.00;78929.22;5054875;28;20029;-70
2023/01/27 03:34:47;;;;;;;7.90;4.30;;;;;;;-142.75;100.00;78913.47;5041318;28;20029;-69
2023/01/27 03:48:09;;;;;;;16.00;5.30;;;;;;;-142.75;100.00;78923.31;5057347;28;20071;-69
2023/01/27 03:50:40;;;;;;;14.55;5.35;;;;;;;-142.75;100.00;78941.03;5037155;28;20018;-70
2023/01/27 03:53:06;;;;;;;11.57;4.87;;;;;;;-142.75;100.00;78956.78;5034969;28;20100;-70
2023/01/27 03:55:34;;;;;;;9.10;4.68;;;;;;;-142.75;100.00;78935.13;5034168;28;20041;-69
2023/01/27 03:58:17;;;;;;;9.70;4.70;;;;;;;-142.75;100.00;78956.78;5032909;28;20405;-70
2023/01/27 04:00:44;;;;;;;11.70;5.37;;;;;;;-142.75;100.00;78944.97;5035669;28;20021;-69
2023/01/27 04:08:37;;;;;;;12.63;5.77;;;;;;;-142.75;100.00;78956.78;5054216;28;20090;-69
2023/01/27 04:13:47;;;;;;;16.60;5.50;;;;;;;-142.75;100.00;79000.13;5053741;28;20523;-69
2023/01/27 04:16:13;;;;;;;9.75;5.78;;;;;;;-142.75;100.00;79000.13;5053827;28;20032;-70
2023/01/27 04:18:38;;;;;;;13.85;6.28;;;;;;;-142.75;100.00;79008.00;5046616;28;20076;-69
2023/01/27 04:21:04;;;;;;;10.63;5.85;;;;;;;-142.75;100.00;79025.72;5037763;28;20032;-69
2023/01/27 04:23:29;;;;;;;12.30;6.35;;;;;;;-142.75;100.00;79009.97;5034829;28;20052;-69
2023/01/27 04:25:55;;;;;;;14.38;7.13;;;;;;;-142.75;100.00;79041.50;5033610;28;20022;-69
2023/01/27 04:28:21;;;;;;;13.85;6.50;;;;;;;-142.75;100.00;79027.69;5039185;28;20033;-69
2023/01/27 04:30:47;;;;;;;;;;;;;;;-142.75;100.00;79035.59;5053634;28;20395;-70
2023/01/27 04:33:14;;;;;;;16.10;7.60;;;;;;;-142.75;100.00;79067.09;5052743;28;19916;-70
2023/01/27 04:35:43;;;;;;;9.77;5.73;;;;;;;-142.75;100.00;79063.16;5049906;28;20387;-69
2023/01/27 04:38:09;;;;;;;11.77;6.40;;;;;;;-142.75;100.00;79078.91;5042794;28;20027;-70
2023/01/27 04:40:34;;;;;;;11.98;6.30;;;;;;;-142.75;100.00;79076.94;5032008;28;20096;-69
2023/01/27 04:42:59;;;;;;;16.55;6.25;;;;;;;-142.75;100.00;79078.91;5048325;28;20028;-69
2023/01/27 04:45:25;;;;;;;12.20;5.75;;;;;;;-142.75;100.00;79084.81;5051029;28;20024;-69
2023/01/27 04:47:50;;;;;;;17.05;6.80;;;;;;;-142.75;100.00;79071.03;5033106;28;20104;-69
2023/01/27 04:50:16;;;;;;;12.60;6.07;;;;;;;-142.75;100.00;79076.94;5033224;28;20495;-69
2023/01/27 04:52:41;;;;;;;13.25;5.82;;;;;;;-142.75;100.00;79078.91;5038406;28;20506;-68
2023/01/27 04:55:07;;;;;;;11.05;3.58;;;;;;;-142.75;100.00;79110.44;5052852;28;20067;-69
2023/01/27 04:57:32;;;;;;;8.50;5.05;;;;;;;-142.75;100.00;79094.69;5043368;28;20037;-69
2023/01/27 04:59:57;;;;;;;7.18;4.15;;;;;;;-142.75;100.00;79102.56;5045240;28;20040;-69
2023/01/27 05:02:23;;;;;;;7.95;4.20;;;;;;;-142.75;100.00;79112.41;5047744;28;20022;-69
2023/01/27 05:04:49;;;;;;;6.13;3.53;;;;;;;-142.75;100.00;79094.69;5035620;28;20137;-69
2023/01/27 05:07:14;;;;;;;5.78;3.33;;;;;;;-142.75;100.00;79102.56;5034152;28;20143;-70
2023/01/27 05:09:39;;;;;;;7.53;3.40;;;;;;;-142.75;100.00;79102.56;5042624;28;20033;-69
2023/01/27 05:12:05;;;;;;;8.20;3.75;;;;;;;-142.75;100.00;79112.41;5035800;28;20025;-70
2023/01/27 05:14:30;;;;;;;10.75;3.65;;;;;;;-142.75;100.00;79098.63;5047689;28;20032;-70
2023/01/27 05:16:55;;;;;;;6.82;3.50;;;;;;;-142.75;100.00;79106.50;5032535;28;20064;-69
2023/01/27 05:19:21;;;;;;;6.78;3.20;;;;;;;-142.75;100.00;79094.69;5035743;28;20488;-69
2023/01/27 05:21:46;;;;;;;7.25;3.20;;;;;;;-142.75;100.00;79110.44;5032658;28;20029;-69
2023/01/27 05:24:11;;;;;;;7.05;3.60;;;;;;;-142.75;100.00;79104.53;5030797;28;20033;-69
2023/01/27 05:26:37;;;;;;;8.10;3.63;;;;;;;-142.75;100.00;79106.50;5032804;28;20029;-69
2023/01/27 05:29:02;;;;;;;6.28;3.10;;;;;;;-142.75;100.00;79102.56;5041048;28;20048;-69
2023/01/27 05:31:30;;;;;;;7.00;3.15;;;;;;;-142.75;100.00;79096.66;5033803;28;20075;-69
2023/01/27 05:33:58;;;;;;;5.63;2.43;;;;;;;-142.75;100.00;79102.56;5040871;28;20616;-69
2023/01/27 05:36:24;;;;;;;6.30;2.83;;;;;;;-142.75;100.00;79110.44;5038152;28;20017;-69
2023/01/27 05:38:50;;;;;;;8.30;3.00;;;;;;;-142.75;100.00;79096.66;5031185;28;20051;-69
2023/01/27 05:41:17;;;;;;;4.97;2.65;;;;;;;-142.75;100.00;79110.44;5034004;28;20025;-69
2023/01/27 05:43:45;;;;;;;5.23;2.43;;;;;;;-142.75;100.00;79106.50;5032378;28;20040;-70
2023/01/27 05:46:16;;;;;;;3.50;2.03;;;;;;;-142.75;100.00;79106.50;5051223;28;20462;-70
2023/01/27 05:48:43;;;;;;;4.70;2.50;;;;;;;-142.75;100.00;79108.47;5051762;28;20427;-69
2023/01/27 05:51:10;;;;;;;4.00;2.10;;;;;;;-142.75;100.00;79122.25;5038408;28;20072;-69
2023/01/27 05:53:35;;;;;;;4.53;2.50;;;;;;;-142.75;100.00;79108.47;5042789;28;20082;-69
2023/01/27 05:56:01;;;;;;;3.83;2.55;;;;;;;-142.75;100.00;79108.47;5050948;28;20099;-69
2023/01/27 05:58:26;;;;;;;3.25;1.85;;;;;;;-142.75;100.00;79118.31;5048507;28;20476;-70
2023/01/27 06:00:53;;;;;;;8.13;2.83;;;;;;;-142.75;100.00;79110.44;5033514;28;20029;-69
2023/01/27 06:03:19;;;;;;;3.97;1.80;;;;;;;-142.75;100.00;79118.31;5030640;28;20026;-69
2023/01/27 06:05:55;;;;;;;3.85;2.17;;;;;;;-142.75;100.00;79110.44;5035427;28;20051;-69
2023/01/27 06:08:22;;;;;;;;;;;;;;;-142.75;100.00;79106.50;5051805;28;20040;-70
2023/01/27 06:10:47;;;;;;;4.10;2.35;;;;;;;-142.75;100.00;79118.31;5041429;28;19925;-69
2023/01/27 06:13:13;;;;;;;3.25;2.05;;;;;;;-142.75;100.00;79116.34;5046084;28;20017;-69
2023/01/27 06:15:40;;;;;;;4.18;2.35;;;;;;;-142.75;100.00;79128.16;5030706;28;20455;-69
2023/01/27 06:18:05;;;;;;;4.33;2.17;;;;;;;-142.75;100.00;79132.09;5039841;28;20416;-69
2023/01/27 06:20:30;;;;;;;5.65;2.85;;;;;;;-142.75;100.00;79110.44;5041556;28;20036;-69
2023/01/27 06:22:55;;;;;;;3.50;2.15;;;;;;;-142.75;100.00;79122.25;5051515;28;20029;-69
2023/01/27 06:25:21;;;;;;;6.05;2.40;;;;;;;-142.75;100.00;79110.44;5048805;28;20079;-69
2023/01/27 06:27:47;;;;;;;5.28;2.65;;;;;;;-142.75;100.00;79120.28;5031407;28;20052;-69
2023/01/27 06:30:12;;;;;;;4.03;2.43;;;;;;;-142.75;100.00;79130.13;5031200;28;20033;-69
2023/01/27 06:32:38;;;;;;;4.55;2.47;;;;;;;-142.75;100.00;79126.19;5045740;28;20031;-69
2023/01/27 06:35:03;;;;;;;5.47;2.05;;;;;;;-142.75;100.00;79134.06;5035937;28;20079;-69
2023/01/27 06:37:29;;;;;;;4.78;2.85;;;;;;;-142.75;100.00;79128.16;5044950;28;20025;-69
2023/01/27 06:39:54;;;;;;;5.53;2.53;;;;;;;-142.75;100.00;79128.16;5045996;28;20022;-69
2023/01/27 06:42:19;;;;;;;5.25;2.72;;;;;;;-142.75;100.00;79149.81;5034933;28;20392;-69
2023/01/27 06:44:45;;;;;;;4.68;2.63;;;;;;;-142.75;100.00;79145.88;5038447;28;20052;-69
2023/01/27 06:47:10;;;;;;;4.72;2.53;;;;;;;-142.75;100.00;79155.72;5031194;28;20029;-69
2023/01/27 06:49:35;;;;;;;8.80;2.15;;;;;;;-142.75;100.00;79165.59;5030617;28;20026;-69
2023/01/27 06:52:00;;;;;;;3.53;2.10;;;;;;;-142.75;100.00;79161.66;5033924;28;20063;-69
2023/01/27 06:54:26;;;;;;;3.03;2.03;;;;;;;-142.75;100.00;79153.75;5033531;28;20111;-69
2023/01/27 06:56:51;;;;;;;2.83;1.95;;;;;;;-142.75;100.00;79157.72;5047193;28;20500;-68
2023/01/27 06:59:16;;;;;;;3.17;2.10;;;;;;;-142.75;100.00;79165.59;5030683;28;20036;-69
2023/01/27 07:01:42;;;;;;;4.20;1.98;;;;;;;-142.75;100.00;79169.53;5048293;28;20029;-69
2023/01/27 07:04:07;;;;;;;3.92;2.25;;;;;;;-142.75;100.00;79175.44;5037122;28;20032;-69
2023/01/27 07:06:32;;;;;;;2.42;1.55;;;;;;;-142.75;100.00;79181.34;5031492;28;20039;-69
2023/01/27 07:08:58;;;;;;;2.90;1.67;;;;;;;-142.75;100.00;79185.28;5036356;28;20025;-69
2023/01/27 07:11:24;;;;;;;3.25;1.70;;;;;;;-142.75;100.00;79185.28;5036977;28;20035;-69
2023/01/27 07:13:49;;;;;;;2.47;1.67;;;;;;;-142.75;100.00;79179.38;5035101;28;20049;-70
2023/01/27 07:16:14;;;;;;;2.45;1.38;;;;;;;-142.75;100.00;79199.06;5030899;28;20120;-69
2023/01/27 07:18:40;;;;;;;2.25;1.45;;;;;;;-142.75;100.00;79212.84;5039610;28;20033;-68
2023/01/27 07:21:05;;;;;;;2.20;1.00;;;;;;;-142.75;100.00;79216.78;5033554;28;20455;-69
2023/01/27 07:23:31;;;;;;;2.97;1.67;;;;;;;-142.75;100.00;79216.78;5029557;28;20029;-69
2023/01/27 07:25:56;;;;;;;2.25;1.40;;;;;;;-142.75;100.00;79208.91;5029533;28;20025;-68
2023/01/27 07:28:21;;;;;;;5.32;1.67;;;;;;;-142.75;100.00;79234.53;5031132;28;20021;-70
2023/01/27 07:30:47;;;;;;;4.88;2.13;;;;;;;-142.75;100.00;79218.75;5044005;28;20160;-69
2023/01/27 07:33:15;;;;;;;2.80;1.70;;;;;;;-142.75;100.00;79212.84;5042599;28;20020;-69
2023/01/27 07:35:41;;;;;;;4.60;2.00;;;;;;;-142.75;100.00;79216.78;5053950;28;20020;-69
2023/01/27 07:38:07;;;;;;;4.13;1.80;;;;;;;-142.75;100.00;79220.75;5053945;28;20031;-69
2023/01/27 07:40:34;;;;;;;3.08;1.80;;;;;;;-142.75;100.00;79212.84;5051733;28;20029;-70
2023/01/27 07:43:00;;;;;;;4.07;2.03;;;;;;;-142.75;100.00;79212.84;5034351;28;20038;-68
2023/01/27 07:45:26;;;;;;;4.53;2.03;;;;;;;-142.75;100.00;79218.75;5046173;28;20512;-70
2023/01/27 07:47:51;;;;;;;3.75;2.33;;;;;;;-142.75;100.00;79218.75;5041050;28;20036;-69
2023/01/27 07:50:17;;;;;;;3.03;1.90;;;;;;;-142.75;100.00;79232.56;5033911;28;20052;-70
2023/01/27 07:52:42;;;;;;;3.08;1.80;;;;;;;-142.75;100.00;79256.19;5033833;28;20037;-68
2023/01/27 07:55:08;;;;;;;4.25;1.73;;;;;;;-142.75;100.00;79252.25;5030776;28;20112;-69
2023/01/27 07:57:33;;;;;;;3.80;1.90;;;;;;;-142.75;100.00;79260.13;5034003;28;20039;-69
2023/01/27 07:59:59;;;;;;;4.68;1.75;;;;;;;-142.75;100.00;79254.22;5045966;28;20025;-70
2023/01/27 08:02:25;;;;;;;3.92;1.77;;;;;;;-142.75;100.00;79248.31;5039756;28;20053;-69
2023/01/27 08:04:50;;;;;;;;;;;;;;;-142.75;100.00;79228.63;5045622;28;20032;-69
2023/01/27 08:07:16;;;;;;;4.80;2.10;;;;;;;-142.75;100.00;79232.56;5043994;28;19921;-70
2023/01/27 08:09:41;;;;;;;3.20;1.58;;;;;;;-142.75;100.00;79252.25;5032384;28;20412;-70
2023/01/27 08:12:06;;;;;;;3.13;1.63;;;;;;;-142.75;100.00;79271.94;5044150;28;20096;-69
2023/01/27 08:14:32;;;;;;;4.10;2.00;;;;;;;-142.75;100.00;79268.00;5037616;28;20026;-69
2023/01/27 08:16:57;;;;;;;3.33;1.70;;;;;;;-142.75;100.00;79269.97;5042139;28;20029;-69
2023/01/27 08:19:22;;;;;;;4.78;2.03;;;;;;;-142.75;100.00;79266.03;5033610;28;20029;-69
2023/01/27 08:21:48;;;;;;;4.95;1.70;;;;;;;-142.75;100.00;79283.78;5044093;28;20633;-69
2023/01/27 08:24:13;;;;;;;4.30;1.80;;;;;;;-142.75;100.00;79281.81;5053042;28;20500;-70
2023/01/27 08:26:38;;;;;;;2.88;1.63;;;;;;;-142.75;100.00;79268.00;5037619;28;20049;-70
2023/01/27 08:29:04;;;;;;;5.15;1.75;;;;;;;-142.75;100.00;79273.91;5045513;28;20025;-68
2023/01/27 08:31:29;;;;;;;2.53;1.60;;;;;;;-142.75;100.00;79252.25;5051908;28;20025;-70
2023/01/27 08:33:54;;;;;;;5.68;2.03;;;;;;;-142.75;100.00;79240.44;5040775;28;20052;-69
2023/01/27 08:36:21;;;;;;;5.32;1.67;;;;;;;-142.75;100.00;79254.22;5034368;28;20021;-69
2023/01/27 08:38:50;;;;;;;3.10;1.80;;;;;;;-142.75;100.00;79260.13;5033138;28;20033;-69
2023/01/27 08:41:19;;;;;;;2.63;1.50;;;;;;;-142.75;100.00;79264.06;5032717;28;20017;-70
2023/01/27 08:43:44;;;;;;;3.03;1.70;;;;;;;-142.75;100.00;79256.19;5037020;28;20386;-69
2023/01/27 08:46:10;;;;;;;4.38;2.20;;;;;;;-142.75;100.00;79234.53;5050083;28;20108;-69
2023/01/27 08:48:36;;;;;;;3.95;1.80;;;;;;;-142.75;100.00;79228.63;5038777;28;20024;-70
2023/01/27 08:51:02;;;;;;;;;;;;;;;-142.75;100.00;79220.75;5041109;28;20384;-68
2023/01/27 08:53:28;;;;;;;4.53;1.70;;;;;;;-142.75;100.00;79224.69;5043645;28;19920;-70
2023/01/27 08:55:58;;;;;;;3.33;1.67;;;;;;;-142.75;100.00;79232.56;5046058;28;20029;-69
2023/01/27 08:58:24;;;;;;;3.20;1.73;;;;;;;-142.75;100.00;79258.16;5032484;28;20107;-69
2023/01/27 09:00:49;;;;;;;4.25;1.50;;;;;;;-142.75;100.00;79242.41;5031314;28;20033;-69
2023/01/27 09:03:15;;;;;;;3.00;1.52;;;;;;;-142.75;100.00;79212.84;5031009;28;20072;-69
2023/01/27 09:05:40;;;;;;;3.13;1.73;;;;;;;-142.75;100.00;79208.91;5045747;28;20102;-69
2023/01/27 09:08:07;;;;;;;5.03;2.05;;;;;;;-142.75;100.00;79210.88;5047685;28;20021;-70
2023/01/27 09:10:36;;;;;;;3.10;1.83;;;;;;;-142.75;100.00;79206.94;5040721;28;20108;-70
2023/01/27 09:13:01;;;;;;;4.00;1.87;;;;;;;-142.75;100.00;79197.09;5033030;28;20782;-69
2023/01/27 09:15:27;;;;;;;2.97;1.65;;;;;;;-142.75;100.00;79169.53;5050634;28;20104;-68
2023/01/27 09:17:52;;;;;;;3.28;1.77;;;;;;;-142.75;100.00;79138.00;5037792;28;20021;-68
2023/01/27 09:20:18;;;;;;;3.33;1.33;;;;;;;-142.75;100.00;79098.63;5035508;28;20519;-69
2023/01/27 09:22:43;;;;;;;5.65;1.50;;;;;;;-142.75;100.00;79021.78;5031974;28;20080;-67
2023/01/27 09:25:16;;;;;;;3.60;1.45;;;;;;;-142.75;100.00;78972.56;5038573;28;20078;-69
2023/01/27 09:27:42;;;;;;;4.13;1.90;;;;;;;-142.75;100.00;78901.66;5037847;28;20052;-70
2023/01/27 09:30:13;;;;;;;3.10;1.30;;;;;;;-142.75;100.00;78840.59;5046199;28;20021;-69
2023/01/27 09:32:40;;;;;;;2.80;1.20;;;;;;;-142.75;100.00;78818.91;5051588;28;20035;-69
2023/01/27 09:35:06;;;;;;;2.73;1.50;;;;;;;-142.75;100.00;78775.59;5051347;28;20396;-69
2023/01/27 09:37:42;;;;;;;2.40;1.10;;;;;;;-142.75;100.00;78795.28;5051599;28;20025;-69
2023/01/27 09:40:15;;;;;;;1.87;1.10;;;;;;;-142.75;100.00;78750.00;5050236;28;20028;-68
2023/01/27 09:42:48;;;;;;;3.20;1.30;;;;;;;-142.75;100.00;78718.47;5036308;28;20563;-69
2023/01/27 09:45:32;;;;;;;4.97;1.30;;;;;;;-142.75;100.00;78702.72;5036958;28;20496;-70
2023/01/27 09:48:19;;;;;;;1.70;1.00;;;;;;;-142.75;100.00;78635.75;5031431;28;20477;-69
2023/01/27 09:50:49;;;;;;;1.52;0.75;;;;;;;-142.75;100.00;78586.53;5030808;28;20033;-70
2023/01/27 09:53:41;;;;;;;1.85;0.82;;;;;;;-142.75;100.00;78604.25;5041187;28;20020;-69
2023/01/27 09:56:34;;;;;;;2.47;1.08;;;;;;;-142.75;100.00;78574.69;5049898;28;20018;-69
2023/01/27 09:59:15;;;;;;;2.28;0.82;;;;;;;-142.75;100.00;78539.25;5051287;28;20028;-70
2023/01/27 10:01:46;;;;;;;3.33;0.70;;;;;;;-142.75;100.00;78549.09;5051372;28;20082;-70
2023/01/27 10:04:14;;;;;;;2.63;0.80;;;;;;;-142.75;100.00;78531.38;5049525;28;20029;-69
2023/01/27 10:07:08;;;;;;;4.90;0.90;;;;;;;-142.75;100.00;78541.22;5034485;28;20052;-68
2023/01/27 10:09:58;;;;;;;1.02;0.63;;;;;;;-142.75;100.00;78523.50;5033716;28;20368;-69
2023/01/27 10:12:41;;;;;;;4.25;0.90;;;;;;;-142.75;100.00;78551.06;5049524;28;20043;-70
2023/01/27 10:15:18;;;;;;;6.03;1.05;;;;;;;-142.75;100.00;78562.88;5043532;28;20491;-68
2023/01/27 10:18:05;;;;;;;2.72;0.65;;;;;;;-142.75;100.00;78513.66;5038135;28;20029;-69
2023/01/27 10:20:45;;;;;;;2.05;0.82;;;;;;;-142.75;100.00;78511.69;5029795;28;20017;-69
2023/01/27 10:23:35;;;;;;;2.58;0.60;;;;;;;-142.75;100.00;78490.00;5041314;28;20021;-69
2023/01/27 10:26:34;;;;;;;2.45;0.93;;;;;;;-142.75;100.00;78551.06;5050732;28;20476;-68
2023/01/27 10:29:30;;;;;;;2.78;0.90;;;;;;;-142.75;100.00;78491.97;5035025;28;20037;-68
2023/01/27 10:32:05;;;;;;;4.10;0.70;;;;;;;-142.75;99.86;78507.75;5038642;28;20037;-69
2023/01/27 10:34:35;;;;;;;3.17;0.90;;;;;;;-142.75;99.92;78464.41;5034345;28;20155;-69
2023/01/27 10:37:27;;;;;;;1.75;0.93;;;;;;;-142.75;100.00;78486.06;5050635;28;20068;-69
2023/01/27 10:40:17;;;;;;;2.85;0.98;;;;;;;-142.75;99.95;78507.75;5018812;28;20051;-68
2023/01/27 10:42:46;;;;;;;0.90;0.60;;;;;;;-142.75;100.00;78582.59;5030000;28;20037;-68
2023/01/27 10:45:31;;;;;;;0.98;0.57;;;;;;;-142.75;100.00;78643.63;5036231;28;20029;-69
2023/01/27 10:48:04;;;;;;;1.50;0.60;;;;;;;-142.75;100.00;78661.34;5029384;28;20029;-69
2023/01/27 10:50:36;;;;;;;1.98;0.88;;;;;;;-142.75;100.00;78556.97;5029195;28;20107;-69
2023/01/27 10:53:21;;;;;;;1.35;0.70;;;;;;;-142.75;100.00;78700.75;5028975;28;20036;-69
2023/01/27 10:56:05;;;;;;;1.83;0.70;;;;;;;-142.75;100.00;78714.53;5046888;28;20040;-69
2023/01/27 10:58:50;;;;;;;1.60;0.70;;;;;;;-142.75;100.00;78818.91;5050492;28;20107;-69
2023/01/27 11:01:21;;;;;;;2.37;0.80;;;;;;;-142.75;100.00;78903.63;5040248;28;20021;-69
2023/01/27 11:03:59;;;;;;;1.30;0.70;;;;;;;-142.75;100.00;78962.69;5047604;28;20083;-69
2023/01/27 11:06:30;;;;;;;2.83;1.00;;;;;;;-142.75;100.00;79019.81;5045159;28;20041;-68
2023/01/27 11:09:15;;;;;;;2.40;1.07;;;;;;;-142.75;100.00;79027.69;5034486;28;20422;-68
2023/01/27 11:11:43;;;;;;;1.50;0.70;;;;;;;-142.75;100.00;79008.00;5035167;28;20037;-69
2023/01/27 11:14:26;;;;;;;2.33;0.97;;;;;;;-142.75;100.00;79011.94;5045179;28;20029;-69
2023/01/27 11:16:57;;;;;;;1.53;0.90;;;;;;;-142.75;100.00;78974.53;5034822;28;20025;-69
2023/01/27 11:19:41;;;;;;;2.73;0.90;;;;;;;-142.75;100.00;79013.91;5046742;28;20048;-69
2023/01/27 11:22:18;;;;;;;2.23;0.90;;;;;;;-142.75;100.00;78988.31;5044966;28;20642;-69
2023/01/27 11:24:56;;;;;;;4.70;1.43;;;;;;;-142.75;100.00;78960.72;5053468;28;20021;-69
2023/01/27 11:27:46;;;;;;;1.33;0.70;;;;;;;-142.75;100.00;79004.06;5047238;28;20451;-66
2023/01/27 11:30:20;;;;;;;2.90;0.73;;;;;;;-142.75;100.00;79035.59;5048154;28;20110;-69
2023/01/27 11:32:58;;;;;;;1.77;1.00;;;;;;;-142.75;100.00;79025.72;5036657;28;20131;-69
2023/01/27 11:35:23;;;;;;;1.40;0.87;;;;;;;-142.75;100.00;79009.97;5036395;28;20516;-69
2023/01/27 11:37:50;;;;;;;3.45;1.15;;;;;;;-142.75;100.00;79015.88;5046469;28;20025;-69
2023/01/27 11:40:33;;;;;;;3.67;0.97;;;;;;;-142.75;100.00;79015.88;5036409;28;20036;-68
2023/01/27 11:42:59;;;;;;;1.70;1.00;;;;;;;-142.75;100.00;79035.59;5053513;28;20025;-69
2023/01/27 11:45:29;;;;;;;2.60;0.93;;;;;;;-142.75;100.00;79039.53;5053727;28;20104;-69
2023/01/27 11:47:57;;;;;;;3.00;1.20;;;;;;;-142.75;100.00;79015.88;5040634;28;20484;-69
2023/01/27 11:50:29;;;;;;;2.20;1.13;;;;;;;-142.75;100.00;79033.63;5051779;28;20025;-68
2023/01/27 11:53:10;;;;;;;2.93;1.00;;;;;;;-142.75;100.00;79039.53;5038123;28;20079;-68
2023/01/27 11:55:40;;;;;;;2.07;1.00;;;;;;;-142.75;100.00;78996.19;5048973;28;20033;-70